createdAt,value
2022-08-18T00:01:07.337Z,98605.63
2022-08-18T00:03:57.084Z,98597.09
2022-08-18T00:06:22.624Z,98591.88
2022-08-18T00:08:50.000Z,98595.75
2022-08-18T00:11:20.945Z,98593.06
2022-08-18T00:13:49.657Z,98586.88
2022-08-18T00:16:17.066Z,98573.09
2022-08-18T00:18:44.526Z,98577.97
2022-08-18T00:21:11.924Z,98572.09
2022-08-18T00:23:39.322Z,98575.25
2022-08-18T00:26:06.873Z,98573.72
2022-08-18T00:28:34.252Z,98575.06
2022-08-18T00:31:03.036Z,98579.91
2022-08-18T00:33:30.492Z,98591.22
2022-08-18T00:35:57.977Z,98587.19
2022-08-18T00:38:25.726Z,98587.34
2022-08-18T00:40:54.855Z,98589.72
2022-08-18T00:43:24.585Z,98593.38
2022-08-18T00:45:52.106Z,98588.53
2022-08-18T00:48:20.801Z,98592.56
2022-08-18T00:50:52.970Z,98586.38
2022-08-18T00:53:22.828Z,98599.25
2022-08-18T00:55:53.644Z,98593.25
2022-08-18T00:58:24.181Z,98594.91
2022-08-18T01:00:52.360Z,98589.72
2022-08-18T01:03:24.912Z,98586.88
2022-08-18T01:05:56.269Z,98582.84
2022-08-18T01:08:29.240Z,98585.19
2022-08-18T01:10:57.090Z,98587.22
2022-08-18T01:13:26.543Z,98590.88
2022-08-18T01:15:53.989Z,98587.00
2022-08-18T01:18:40.056Z,98595.72
2022-08-18T01:21:25.227Z,98597.53
2022-08-18T01:23:54.879Z,98598.53
2022-08-18T01:26:22.704Z,98600.38
2022-08-18T01:28:50.658Z,98593.00
2022-08-18T01:31:32.789Z,98606.69
2022-08-18T01:34:01.119Z,98603.53
2022-08-18T01:36:29.514Z,98611.69
2022-08-18T01:38:58.570Z,98611.38
2022-08-18T01:41:30.360Z,98611.69
2022-08-18T01:43:58.783Z,98622.56
2022-08-18T01:46:27.017Z,98629.41
2022-08-18T01:48:54.598Z,98633.09
2022-08-18T01:51:39.294Z,98626.03
2022-08-18T01:54:09.669Z,98625.50
2022-08-18T01:56:37.766Z,98628.16
2022-08-18T01:59:06.107Z,98631.59
2022-08-18T02:01:36.683Z,98630.06
2022-08-18T02:04:33.346Z,98626.34
2022-08-18T02:06:55.229Z,98618.78
2022-08-18T02:09:24.995Z,98617.19
2022-08-18T02:11:53.095Z,98609.16
2022-08-18T02:14:25.140Z,98615.03
2022-08-18T02:16:59.429Z,98615.25
2022-08-18T02:19:33.228Z,98607.81
2022-08-18T02:22:00.635Z,98612.19
2022-08-18T02:24:29.408Z,98612.75
2022-08-18T02:26:56.977Z,98613.63
2022-08-18T02:29:24.407Z,98617.03
2022-08-18T02:31:51.837Z,98604.47
2022-08-18T02:34:19.229Z,98611.69
2022-08-18T02:36:46.776Z,98609.56
2022-08-18T02:39:14.197Z,98606.69
2022-08-18T02:41:43.051Z,98605.56
2022-08-18T02:44:10.467Z,98607.88
2022-08-18T02:46:38.764Z,98604.19
2022-08-18T02:49:07.514Z,98609.41
2022-08-18T02:51:35.425Z,98608.41
2022-08-18T02:54:03.361Z,98609.56
2022-08-18T02:56:39.859Z,98602.53
2022-08-18T02:59:11.567Z,98609.91
2022-08-18T03:01:40.581Z,98603.19
2022-08-18T03:04:09.440Z,98609.56
2022-08-18T03:06:37.747Z,98606.22
2022-08-18T03:09:05.431Z,98600.50
2022-08-18T03:11:32.854Z,98599.50
2022-08-18T03:14:00.329Z,98593.97
2022-08-18T03:16:33.036Z,98608.53
2022-08-18T03:19:01.528Z,98603.16
2022-08-18T03:21:29.917Z,98611.56
2022-08-18T03:24:01.573Z,98609.03
2022-08-18T03:26:31.165Z,98614.06
2022-08-18T03:28:59.992Z,98617.75
2022-08-18T03:31:31.206Z,98617.41
2022-08-18T03:33:59.893Z,98609.72
2022-08-18T03:36:28.649Z,98616.91
2022-08-18T03:38:57.028Z,98614.38
2022-08-18T03:41:57.495Z,98613.53
2022-08-18T03:44:14.317Z,98619.75
2022-08-18T03:46:43.941Z,98620.91
2022-08-18T03:49:11.742Z,98622.94
2022-08-18T03:51:39.368Z,98634.78
2022-08-18T03:54:06.847Z,98626.91
2022-08-18T03:56:37.769Z,98629.94
2022-08-18T03:59:07.760Z,98631.25
2022-08-18T04:01:39.219Z,98631.59
2022-08-18T04:04:09.937Z,98631.91
2022-08-18T04:06:39.313Z,98637.59
2022-08-18T04:09:07.812Z,98634.38
2022-08-18T04:11:37.136Z,98632.88
2022-08-18T04:14:05.047Z,98631.50
2022-08-18T04:16:33.488Z,98634.66
2022-08-18T04:19:03.033Z,98633.16
2022-08-18T04:21:32.908Z,98637.84
2022-08-18T04:24:02.941Z,98644.16
2022-08-18T04:26:31.795Z,98636.84
2022-08-18T04:29:01.033Z,98643.03
2022-08-18T04:31:29.540Z,98638.34
2022-08-18T04:33:58.321Z,98643.53
2022-08-18T04:36:26.247Z,98643.19
2022-08-18T04:38:56.458Z,98636.47
2022-08-18T04:41:26.911Z,98643.81
2022-08-18T04:43:54.551Z,98649.47
2022-08-18T04:46:24.062Z,98650.44
2022-08-18T04:48:52.258Z,98650.75
2022-08-18T04:52:36.295Z,98659.38
2022-08-18T04:54:09.046Z,98653.28
2022-08-18T04:56:38.500Z,98657.81
2022-08-18T04:59:06.905Z,98656.59
2022-08-18T05:01:35.860Z,98655.44
2022-08-18T05:04:03.666Z,98652.59
2022-08-18T05:06:31.464Z,98655.13
2022-08-18T05:08:59.852Z,98654.66
2022-08-18T05:11:29.855Z,98652.72
2022-08-18T05:13:57.824Z,98657.84
2022-08-18T05:16:27.679Z,98654.53
2022-08-18T05:18:55.650Z,98660.94
2022-08-18T05:21:25.181Z,98666.97
2022-08-18T05:23:53.235Z,98665.22
2022-08-18T05:26:20.721Z,98673.28
2022-08-18T05:28:49.420Z,98679.34
2022-08-18T05:31:25.391Z,98672.84
2022-08-18T05:33:55.653Z,98674.25
2022-08-18T05:36:30.868Z,98670.81
2022-08-18T05:39:03.632Z,98674.69
2022-08-18T05:41:34.514Z,98678.38
2022-08-18T05:44:03.590Z,98672.00
2022-08-18T05:46:35.840Z,98687.97
2022-08-18T05:49:03.204Z,98688.78
2022-08-18T05:51:34.729Z,98679.91
2022-08-18T05:54:20.886Z,98683.59
2022-08-18T05:56:51.077Z,98688.84
2022-08-18T05:59:22.674Z,98688.00
2022-08-18T06:01:53.095Z,98679.78
2022-08-18T06:04:27.570Z,98686.13
2022-08-18T06:06:57.798Z,98678.25
2022-08-18T06:09:28.327Z,98685.28
2022-08-18T06:11:57.886Z,98681.94
2022-08-18T06:14:26.781Z,98679.03
2022-08-18T06:16:59.949Z,98681.22
2022-08-18T06:19:31.834Z,98679.53
2022-08-18T06:22:03.754Z,98688.78
2022-08-18T06:24:35.593Z,98687.44
2022-08-18T06:27:09.945Z,98693.78
2022-08-18T06:29:47.853Z,98696.78
2022-08-18T06:32:20.806Z,98694.75
2022-08-18T06:34:58.174Z,98703.84
2022-08-18T06:37:30.142Z,98709.22
2022-08-18T06:39:58.634Z,98711.91
2022-08-18T06:42:30.606Z,98707.88
2022-08-18T06:45:01.448Z,98713.25
2022-08-18T06:47:35.553Z,98706.88
2022-08-18T06:50:05.832Z,98713.41
2022-08-18T06:52:34.540Z,98717.81
2022-08-18T06:55:03.021Z,98719.63
2022-08-18T06:57:33.311Z,98715.44
2022-08-18T07:00:04.606Z,98725.69
2022-08-18T07:02:52.657Z,98728.38
2022-08-18T07:05:22.069Z,98727.88
2022-08-18T07:08:10.065Z,98733.22
2022-08-18T07:10:39.347Z,98735.53
2022-08-18T07:13:07.599Z,98716.00
2022-08-18T07:15:36.389Z,98735.97
2022-08-18T07:18:05.893Z,98737.97
2022-08-18T07:20:41.784Z,98735.41
2022-08-18T07:23:09.336Z,98724.41
2022-08-18T07:25:39.749Z,98723.53
2022-08-18T07:28:07.921Z,98729.69
2022-08-18T07:30:38.029Z,98730.84
2022-08-18T07:33:13.263Z,98737.41
2022-08-18T07:35:43.758Z,98734.19
2022-08-18T07:38:41.560Z,98730.25
2022-08-18T07:41:07.299Z,98721.06
2022-08-18T07:43:38.410Z,98719.00
2022-08-18T07:46:13.255Z,98709.75
2022-08-18T07:48:40.702Z,98710.66
2022-08-18T07:51:15.189Z,98704.22
2022-08-18T07:53:55.964Z,98716.75
2022-08-18T07:56:29.950Z,98717.84
2022-08-18T07:58:59.698Z,98719.00
2022-08-18T08:01:33.945Z,98721.31
2022-08-18T08:04:06.524Z,98719.72
2022-08-18T08:06:37.452Z,98713.94
2022-08-18T08:09:11.900Z,98708.41
2022-08-18T08:11:45.888Z,98701.44
2022-08-18T08:14:25.685Z,98714.50
2022-08-18T08:17:01.535Z,98713.47
2022-08-18T08:20:00.007Z,98709.53
2022-08-18T08:22:31.562Z,98722.59
2022-08-18T08:25:03.650Z,98709.34
2022-08-18T08:27:37.143Z,98715.44
2022-08-18T08:30:08.810Z,98716.00
2022-08-18T08:32:38.627Z,98722.50
2022-08-18T08:35:12.730Z,98708.97
2022-08-18T08:38:04.829Z,98717.53
2022-08-18T08:40:47.204Z,98723.13
2022-08-18T08:43:18.170Z,98727.34
2022-08-18T08:45:48.343Z,98735.59
2022-08-18T08:48:18.664Z,98726.56
2022-08-18T08:50:48.550Z,98730.81
2022-08-18T08:53:21.566Z,98740.97
2022-08-18T08:55:51.857Z,98734.25
2022-08-18T08:58:21.888Z,98740.00
2022-08-18T09:00:52.688Z,98731.38
2022-08-18T09:03:30.110Z,98731.69
2022-08-18T09:06:04.050Z,98734.44
2022-08-18T09:08:49.187Z,98740.34
2022-08-18T09:11:39.843Z,98743.41
2022-08-18T09:14:24.001Z,98733.03
2022-08-18T09:16:56.894Z,98742.59
2022-08-18T09:19:45.062Z,98733.00
2022-08-18T09:22:18.583Z,98737.88
2022-08-18T09:24:47.893Z,98740.13
2022-08-18T09:27:27.894Z,98748.09
2022-08-18T09:29:57.312Z,98747.94
2022-08-18T09:32:40.381Z,98740.97
2022-08-18T09:35:17.749Z,98738.09
2022-08-18T09:38:11.418Z,98736.59
2022-08-18T09:41:04.442Z,98738.72
2022-08-18T09:43:37.193Z,98745.44
2022-08-18T09:46:05.881Z,98747.75
2022-08-18T09:48:34.289Z,98746.06
2022-08-18T09:51:20.761Z,98744.13
2022-08-18T09:54:06.259Z,98746.72
2022-08-18T09:56:55.710Z,98749.06
2022-08-18T09:59:42.134Z,98750.41
2022-08-18T10:02:14.226Z,98753.66
2022-08-18T10:04:51.079Z,98755.94
2022-08-18T10:07:32.013Z,98746.72
2022-08-18T10:10:59.153Z,98742.44
2022-08-18T10:13:08.312Z,98738.63
2022-08-18T10:15:44.521Z,98731.84
2022-08-18T10:18:21.539Z,98736.41
2022-08-18T10:20:56.606Z,98741.63
2022-08-18T10:23:47.931Z,98751.38
2022-08-18T10:26:41.525Z,98747.66
2022-08-18T10:29:40.910Z,98756.13
2022-08-18T10:32:22.780Z,98758.84
2022-08-18T10:34:52.914Z,98765.69
2022-08-18T10:37:26.095Z,98764.66
2022-08-18T10:39:55.339Z,98757.84
2022-08-18T10:42:24.296Z,98760.28
2022-08-18T10:45:01.939Z,98773.75
2022-08-18T10:47:35.425Z,98761.66
2022-08-18T10:50:05.422Z,98777.72
2022-08-18T10:52:54.376Z,98768.16
2022-08-18T10:55:48.538Z,98779.38
2022-08-18T10:58:28.097Z,98780.94
2022-08-18T11:01:10.085Z,98781.00
2022-08-18T11:06:38.951Z,98774.00
2022-08-18T11:09:06.388Z,98773.66
2022-08-18T11:11:40.457Z,98772.97
2022-08-18T11:14:13.568Z,98768.16
2022-08-18T11:16:48.288Z,98771.03
2022-08-18T11:19:17.799Z,98768.53
2022-08-18T11:21:51.238Z,98773.81
2022-08-18T11:24:21.557Z,98777.81
2022-08-18T11:26:53.201Z,98776.59
2022-08-18T11:29:22.548Z,98784.69
2022-08-18T11:31:52.622Z,98782.91
2022-08-18T11:34:27.244Z,98784.56
2022-08-18T11:36:59.573Z,98780.84
2022-08-18T11:39:37.749Z,98781.66
2022-08-18T11:42:09.161Z,98776.94
2022-08-18T11:44:43.659Z,98776.81
2022-08-18T11:47:15.062Z,98788.38
2022-08-18T11:49:54.142Z,98799.50
2022-08-18T11:52:26.169Z,98809.44
2022-08-18T11:55:16.326Z,98808.44
2022-08-18T11:57:54.512Z,98811.13
2022-08-18T12:00:42.497Z,98820.41
2022-08-18T12:03:15.436Z,98805.72
2022-08-18T12:05:56.074Z,98810.47
2022-08-18T12:08:54.495Z,98805.91
2022-08-18T12:11:26.601Z,98811.19
2022-08-18T12:13:59.922Z,98814.06
2022-08-18T12:16:35.512Z,98816.38
2022-08-18T12:19:05.420Z,98799.06
2022-08-18T12:21:40.017Z,98804.63
2022-08-18T12:24:11.087Z,98807.66
2022-08-18T12:26:47.345Z,98805.34
2022-08-18T12:29:16.194Z,98801.31
2022-08-18T12:31:48.219Z,98792.22
2022-08-18T12:34:16.467Z,98781.75
2022-08-18T12:36:46.931Z,98783.56
2022-08-18T12:39:14.629Z,98772.75
2022-08-18T12:41:42.252Z,98770.72
2022-08-18T12:44:13.392Z,98771.69
2022-08-18T12:46:42.782Z,98763.91
2022-08-18T12:49:15.355Z,98761.38
2022-08-18T12:51:42.726Z,98759.16
2022-08-18T12:54:12.654Z,98750.34
2022-08-18T12:56:40.835Z,98757.91
2022-08-18T12:59:09.363Z,98754.28
2022-08-18T13:01:38.358Z,98752.22
2022-08-18T13:04:12.708Z,98741.75
2022-08-18T13:06:54.139Z,98743.31
2022-08-18T13:09:42.757Z,98742.78
2022-08-18T13:12:19.290Z,98740.38
2022-08-18T13:14:47.300Z,98746.78
2022-08-18T13:17:33.040Z,98740.38
2022-08-18T13:20:01.534Z,98733.97
2022-08-18T13:22:31.874Z,98717.31
2022-08-18T13:25:01.783Z,98712.66
2022-08-18T13:27:35.325Z,98713.97
2022-08-18T13:30:05.033Z,98711.47
2022-08-18T13:32:59.347Z,98706.72
2022-08-18T13:35:30.104Z,98714.31
2022-08-18T13:38:12.348Z,98709.47
2022-08-18T13:40:48.434Z,98723.13
2022-08-18T13:43:17.551Z,98722.28
2022-08-18T13:45:46.911Z,98721.16
2022-08-18T13:48:20.134Z,98716.78
2022-08-18T13:50:47.802Z,98725.22
2022-08-18T13:53:21.786Z,98729.31
2022-08-18T13:55:51.041Z,98721.63
2022-08-18T13:58:20.704Z,98718.75
2022-08-18T14:00:51.585Z,98709.91
2022-08-18T14:03:30.980Z,98696.25
2022-08-18T14:06:12.978Z,98701.41
2022-08-18T14:08:41.227Z,98700.72
2022-08-18T14:11:10.038Z,98703.50
2022-08-18T14:13:38.118Z,98710.09
2022-08-18T14:16:19.084Z,98701.19
2022-08-18T14:19:09.777Z,98712.28
2022-08-18T14:21:59.021Z,98694.63
2022-08-18T14:24:43.791Z,98705.09
2022-08-18T14:27:17.939Z,98706.00
2022-08-18T14:29:48.159Z,98698.84
2022-08-18T14:32:22.004Z,98691.97
2022-08-18T14:35:00.333Z,98683.63
2022-08-18T14:37:28.518Z,98694.88
2022-08-18T14:39:56.628Z,98697.06
2022-08-18T14:42:41.423Z,98697.13
2022-08-18T14:45:17.623Z,98704.88
2022-08-18T14:47:58.661Z,98705.41
2022-08-18T14:50:26.947Z,98706.13
2022-08-18T14:52:54.344Z,98717.84
2022-08-18T14:55:22.725Z,98716.31
2022-08-18T14:57:51.560Z,98706.72
2022-08-18T15:00:21.036Z,98708.06
2022-08-18T15:02:50.287Z,98713.41
2022-08-18T15:05:24.661Z,98715.69
2022-08-18T15:07:53.029Z,98707.25
2022-08-18T15:10:23.371Z,98717.69
2022-08-18T15:12:52.628Z,98710.63
2022-08-18T15:15:22.622Z,98714.50
2022-08-18T15:17:53.013Z,98714.25
2022-08-18T15:20:28.822Z,98714.31
2022-08-18T15:23:13.973Z,98714.22
2022-08-18T15:25:45.740Z,98726.84
2022-08-18T15:28:17.456Z,98716.72
2022-08-18T15:30:51.039Z,98717.97
2022-08-18T15:33:23.538Z,98724.50
2022-08-18T15:35:52.456Z,98722.94
2022-08-18T15:38:20.805Z,98720.91
2022-08-18T15:40:49.153Z,98716.34
2022-08-18T15:43:23.113Z,98709.66
2022-08-18T15:45:58.269Z,98722.47
2022-08-18T15:48:26.999Z,98717.06
2022-08-18T15:50:54.588Z,98715.59
2022-08-18T15:53:23.282Z,98712.53
2022-08-18T15:55:51.078Z,98707.97
2022-08-18T15:58:22.315Z,98698.75
2022-08-18T16:00:52.287Z,98687.72
2022-08-18T16:03:21.556Z,98672.19
2022-08-18T16:05:52.974Z,98664.03
2022-08-18T16:08:21.308Z,98661.78
2022-08-18T16:10:48.740Z,98660.91
2022-08-18T16:13:16.119Z,98649.22
2022-08-18T16:15:46.672Z,98653.97
2022-08-18T16:18:15.886Z,98657.41
2022-08-18T16:20:44.150Z,98648.03
2022-08-18T16:23:12.947Z,98655.28
2022-08-18T16:25:40.576Z,98655.84
2022-08-18T16:28:08.323Z,98656.19
2022-08-18T16:30:35.771Z,98641.78
2022-08-18T16:33:03.996Z,98651.22
2022-08-18T16:35:32.939Z,98639.81
2022-08-18T16:38:03.400Z,98647.25
2022-08-18T16:40:31.405Z,98640.03
2022-08-18T16:43:00.000Z,98635.00
2022-08-18T16:45:27.687Z,98636.81
2022-08-18T16:47:55.226Z,98631.31
2022-08-18T16:50:24.932Z,98632.13
2022-08-18T16:52:53.836Z,98636.66
2022-08-18T16:55:21.868Z,98631.13
2022-08-18T16:58:06.727Z,98635.63
2022-08-18T17:00:54.889Z,98632.78
2022-08-18T17:03:40.760Z,98633.13
2022-08-18T17:06:10.761Z,98632.66
2022-08-18T17:08:39.955Z,98638.84
2022-08-18T17:11:09.435Z,98645.03
2022-08-18T17:13:37.208Z,98640.84
2022-08-18T17:16:04.920Z,98637.31
2022-08-18T17:18:32.302Z,98636.47
2022-08-18T17:21:02.414Z,98635.34
2022-08-18T17:23:29.834Z,98641.34
2022-08-18T17:25:59.484Z,98640.34
2022-08-18T17:28:30.654Z,98643.53
2022-08-18T17:30:59.594Z,98656.09
2022-08-18T17:33:28.888Z,98655.91
2022-08-18T17:35:58.835Z,98652.91
2022-08-18T17:38:28.037Z,98653.22
2022-08-18T17:40:56.709Z,98651.06
2022-08-18T17:43:26.517Z,98647.38
2022-08-18T17:45:55.375Z,98648.22
2022-08-18T17:48:24.278Z,98637.66
2022-08-18T17:51:11.042Z,98641.19
2022-08-18T17:53:38.606Z,98639.50
2022-08-18T17:56:08.658Z,98649.72
2022-08-18T17:58:40.650Z,98644.88
2022-08-18T18:01:08.600Z,98642.38
2022-08-18T18:03:36.076Z,98653.09
2022-08-18T18:06:08.622Z,98661.81
2022-08-18T18:08:48.973Z,98655.78
2022-08-18T18:11:16.403Z,98661.81
2022-08-18T18:13:46.430Z,98657.28
2022-08-18T18:16:21.556Z,98663.00
2022-08-18T18:18:56.520Z,98666.50
2022-08-18T18:22:00.852Z,98675.56
2022-08-18T18:24:16.984Z,98669.69
2022-08-18T18:26:52.124Z,98672.00
2022-08-18T18:29:28.247Z,98672.34
2022-08-18T18:31:58.643Z,98670.69
2022-08-18T18:34:28.776Z,98671.53
2022-08-18T18:36:56.942Z,98676.03
2022-08-18T18:39:33.766Z,98680.41
2022-08-18T18:42:10.841Z,98679.03
2022-08-18T18:44:49.194Z,98678.03
2022-08-18T18:47:24.627Z,98684.41
2022-08-18T18:49:58.064Z,98676.34
2022-08-18T18:52:29.923Z,98676.72
2022-08-18T18:55:02.128Z,98677.69
2022-08-18T18:57:33.948Z,98681.22
2022-08-18T19:00:11.610Z,98680.53
2022-08-18T19:02:43.947Z,98682.72
2022-08-18T19:05:17.559Z,98678.69
2022-08-18T19:07:53.412Z,98685.88
2022-08-18T19:10:24.512Z,98684.38
2022-08-18T19:12:53.889Z,98685.22
2022-08-18T19:15:24.679Z,98687.22
2022-08-18T19:17:54.711Z,98681.53
2022-08-18T19:20:25.760Z,98680.69
2022-08-18T19:22:55.645Z,98686.91
2022-08-18T19:25:26.306Z,98689.59
2022-08-18T19:27:57.030Z,98686.72
2022-08-18T19:30:25.946Z,98695.78
2022-08-18T19:32:54.546Z,98686.25
2022-08-18T19:35:23.677Z,98687.09
2022-08-18T19:38:08.679Z,98681.53
2022-08-18T19:40:40.305Z,98684.56
2022-08-18T19:43:11.407Z,98689.28
2022-08-18T19:45:45.252Z,98699.13
2022-08-18T19:48:18.281Z,98689.28
2022-08-18T19:50:47.402Z,98689.94
2022-08-18T19:53:32.536Z,98694.81
2022-08-18T19:56:08.251Z,98691.13
2022-08-18T19:59:15.449Z,98705.19
2022-08-18T20:01:50.416Z,98705.88
2022-08-18T20:04:24.111Z,98696.84
2022-08-18T20:07:03.561Z,98707.22
2022-08-18T20:09:48.946Z,98709.06
2022-08-18T20:12:22.853Z,98704.53
2022-08-18T20:15:00.491Z,98703.53
2022-08-18T20:17:29.200Z,98713.09
2022-08-18T20:20:14.243Z,98703.03
2022-08-18T20:22:43.061Z,98703.22
2022-08-18T20:25:25.341Z,98700.38
2022-08-18T20:27:53.789Z,98699.19
2022-08-18T20:30:26.604Z,98702.88
2022-08-18T20:33:10.427Z,98712.41
2022-08-18T20:35:40.796Z,98712.75
2022-08-18T20:38:14.581Z,98718.31
2022-08-18T20:40:44.659Z,98719.31
2022-08-18T20:43:25.842Z,98721.66
2022-08-18T20:45:57.478Z,98724.84
2022-08-18T20:48:42.117Z,98722.84
2022-08-18T20:51:11.345Z,98725.69
2022-08-18T20:54:13.108Z,98733.22
2022-08-18T20:56:44.474Z,98728.53
2022-08-18T20:59:19.835Z,98724.03
2022-08-18T21:01:57.099Z,98722.34
2022-08-18T21:04:48.711Z,98727.00
2022-08-18T21:07:17.255Z,98726.69
2022-08-18T21:09:49.161Z,98725.81
2022-08-18T21:12:21.866Z,98714.97
2022-08-18T21:14:52.613Z,98712.94
2022-08-18T21:17:20.031Z,98708.59
2022-08-18T21:19:48.791Z,98702.38
2022-08-18T21:22:16.164Z,98699.84
2022-08-18T21:24:46.806Z,98703.19
2022-08-18T21:27:20.438Z,98695.78
2022-08-18T21:29:49.814Z,98703.00
2022-08-18T21:32:18.828Z,98713.19
2022-08-18T21:34:46.399Z,98711.19
2022-08-18T21:37:17.276Z,98708.34
2022-08-18T21:39:48.738Z,98702.44
2022-08-18T21:42:18.929Z,98696.47
2022-08-18T21:44:47.317Z,98690.59
2022-08-18T21:47:16.193Z,98691.09
2022-08-18T21:49:57.357Z,98693.41
2022-08-18T21:52:28.156Z,98701.28
2022-08-18T21:54:58.474Z,98700.81
2022-08-18T21:57:27.319Z,98703.69
2022-08-18T22:00:16.887Z,98707.88
2022-08-18T22:02:44.370Z,98708.88
2022-08-18T22:05:12.123Z,98709.72
2022-08-18T22:07:48.649Z,98717.44
2022-08-18T22:10:40.132Z,98711.78
2022-08-18T22:13:49.027Z,98715.00
2022-08-18T22:16:25.476Z,98714.75
2022-08-18T22:18:52.909Z,98710.72
2022-08-18T22:21:37.942Z,98705.53
2022-08-18T22:24:19.567Z,98709.34
2022-08-18T22:26:48.689Z,98716.38
2022-08-18T22:29:22.939Z,98716.38
2022-08-18T22:31:52.044Z,98714.22
2022-08-18T22:34:28.141Z,98709.72
2022-08-18T22:36:59.694Z,98704.53
2022-08-18T22:39:29.791Z,98708.69
2022-08-18T22:41:57.353Z,98703.50
2022-08-18T22:44:24.922Z,98703.22
2022-08-18T22:46:52.820Z,98711.88
2022-08-18T22:49:20.766Z,98710.34
2022-08-18T22:51:49.287Z,98717.56
2022-08-18T22:54:18.345Z,98713.38
2022-08-18T22:56:53.846Z,98719.03
2022-08-18T22:59:25.482Z,98717.69
2022-08-18T23:01:54.917Z,98710.63
2022-08-18T23:04:25.390Z,98709.97
2022-08-18T23:06:53.569Z,98718.00
2022-08-18T23:09:22.234Z,98711.50
2022-08-18T23:11:51.049Z,98722.34
2022-08-18T23:14:18.417Z,98716.50
2022-08-18T23:16:47.195Z,98718.34
2022-08-18T23:19:15.057Z,98718.16
2022-08-18T23:21:42.569Z,98706.91
2022-08-18T23:24:11.625Z,98711.78
2022-08-18T23:26:39.111Z,98718.06
2022-08-18T23:29:09.344Z,98723.41
2022-08-18T23:31:36.710Z,98725.97
2022-08-18T23:34:04.575Z,98731.78
2022-08-18T23:36:33.341Z,98742.34
2022-08-18T23:39:01.077Z,98752.38
2022-08-18T23:41:28.519Z,98745.34
2022-08-18T23:43:55.870Z,98725.59
2022-08-18T23:46:26.080Z,98733.63
2022-08-18T23:48:54.344Z,98729.56
2022-08-18T23:51:26.538Z,98724.22
2022-08-18T23:53:54.201Z,98717.81
2022-08-18T23:56:21.545Z,98719.66
2022-08-18T23:58:55.272Z,98724.56
